createdAt,value
2018-06-20T00:00:57.498Z,4.63
2018-06-20T00:03:25.065Z,5.37
2018-06-20T00:05:52.641Z,4.97
2018-06-20T00:08:20.222Z,4.40
2018-06-20T00:10:47.766Z,4.50
2018-06-20T00:13:15.335Z,5.13
2018-06-20T00:15:42.935Z,5.60
2018-06-20T00:18:10.546Z,5.00
2018-06-20T00:20:38.150Z,4.70
2018-06-20T00:23:05.705Z,4.60
2018-06-20T00:25:33.274Z,4.80
2018-06-20T00:28:00.880Z,4.80
2018-06-20T00:30:28.512Z,4.63
2018-06-20T00:32:56.108Z,4.80
2018-06-20T00:35:23.691Z,5.10
2018-06-20T00:37:51.261Z,5.00
2018-06-20T00:40:18.841Z,4.93
2018-06-20T00:42:46.461Z,5.20
2018-06-20T00:45:14.069Z,4.50
2018-06-20T00:47:41.624Z,5.03
2018-06-20T00:50:09.191Z,4.70
2018-06-20T00:52:36.909Z,4.50
2018-06-20T00:55:04.546Z,4.90
2018-06-20T00:57:32.149Z,5.33
2018-06-20T00:59:59.704Z,4.90
2018-06-20T01:02:27.272Z,5.20
2018-06-20T01:04:54.861Z,4.83
2018-06-20T01:07:22.473Z,5.30
2018-06-20T01:09:50.076Z,5.80
2018-06-20T01:12:17.639Z,5.50
2018-06-20T01:14:45.214Z,5.43
2018-06-20T01:17:12.764Z,6.07
2018-06-20T01:19:40.346Z,5.70
2018-06-20T01:22:07.938Z,4.93
2018-06-20T01:24:35.530Z,5.47
2018-06-20T01:27:03.127Z,5.63
2018-06-20T01:29:30.693Z,5.80
2018-06-20T01:31:58.256Z,5.70
2018-06-20T01:34:25.843Z,5.97
2018-06-20T01:36:53.418Z,6.63
2018-06-20T01:39:21.017Z,5.80
2018-06-20T01:41:48.576Z,5.67
2018-06-20T01:44:16.135Z,5.50
2018-06-20T01:46:43.729Z,6.17
2018-06-20T01:49:11.294Z,6.93
2018-06-20T01:51:38.871Z,5.70
2018-06-20T01:54:06.458Z,7.60
2018-06-20T01:56:34.025Z,6.90
2018-06-20T01:59:01.624Z,6.80
2018-06-20T02:01:29.233Z,6.87
2018-06-20T02:03:56.841Z,6.80
2018-06-20T02:06:24.447Z,6.70
2018-06-20T02:08:58.042Z,7.50
2018-06-20T02:11:25.630Z,6.97
2018-06-20T02:13:53.428Z,7.70
2018-06-20T02:16:21.046Z,6.57
2018-06-20T02:18:48.651Z,7.80
2018-06-20T02:21:16.259Z,7.30
2018-06-20T02:23:43.905Z,7.03
2018-06-20T02:26:11.524Z,6.63
2018-06-20T02:28:39.092Z,7.93
2018-06-20T02:31:06.676Z,6.70
2018-06-20T02:33:34.253Z,6.67
2018-06-20T02:36:06.080Z,6.67
2018-06-20T02:38:33.677Z,6.90
2018-06-20T02:41:01.268Z,6.30
2018-06-20T02:43:28.859Z,6.90
2018-06-20T02:45:56.441Z,6.20
2018-06-20T02:48:24.018Z,8.00
2018-06-20T02:50:51.647Z,7.13
2018-06-20T02:53:19.262Z,7.70
2018-06-20T02:55:46.844Z,7.50
2018-06-20T02:58:14.413Z,7.00
2018-06-20T03:00:42.006Z,7.30
2018-06-20T03:03:09.565Z,7.30
2018-06-20T03:05:37.158Z,7.07
2018-06-20T03:08:04.733Z,7.60
2018-06-20T03:10:32.321Z,8.13
2018-06-20T03:12:59.921Z,7.57
2018-06-20T03:15:27.485Z,7.83
2018-06-20T03:17:55.044Z,8.10
2018-06-20T03:20:22.643Z,7.90
2018-06-20T03:22:50.212Z,7.40
2018-06-20T03:25:17.780Z,8.13
2018-06-20T03:27:45.364Z,8.10
2018-06-20T03:30:13.235Z,7.87
2018-06-20T03:32:40.793Z,8.20
2018-06-20T03:35:08.354Z,7.80
2018-06-20T03:37:36.051Z,7.50
2018-06-20T03:40:03.766Z,8.17
2018-06-20T03:42:31.317Z,8.17
2018-06-20T03:44:58.873Z,8.97
2018-06-20T03:47:26.462Z,8.50
2018-06-20T03:49:54.048Z,7.70
2018-06-20T03:52:21.633Z,8.33
2018-06-20T03:54:49.251Z,8.13
2018-06-20T03:57:16.842Z,7.53
2018-06-20T03:59:44.454Z,9.03
2018-06-20T04:02:12.100Z,8.23
2018-06-20T04:04:39.662Z,8.93
2018-06-20T04:07:07.250Z,9.37
2018-06-20T04:09:34.816Z,8.13
2018-06-20T04:12:02.401Z,8.23
2018-06-20T04:14:29.993Z,8.87
2018-06-20T04:16:57.593Z,8.53
2018-06-20T04:19:25.163Z,8.80
2018-06-20T04:21:52.739Z,8.53
2018-06-20T04:24:20.318Z,8.77
2018-06-20T04:26:47.936Z,9.40
2018-06-20T04:29:15.498Z,8.93
2018-06-20T04:31:43.081Z,8.90
2018-06-20T04:34:10.673Z,9.43
2018-06-20T04:36:38.246Z,8.27
2018-06-20T04:39:07.237Z,10.80
2018-06-20T04:41:34.810Z,10.17
2018-06-20T04:44:02.394Z,10.63
2018-06-20T04:46:30.003Z,9.47
2018-06-20T04:48:57.570Z,10.53
2018-06-20T04:51:25.214Z,10.33
2018-06-20T04:53:52.787Z,10.40
2018-06-20T04:56:20.365Z,10.47
2018-06-20T04:58:47.944Z,9.80
2018-06-20T05:01:15.524Z,10.37
2018-06-20T05:03:43.116Z,11.30
2018-06-20T05:06:10.667Z,10.37
2018-06-20T05:08:38.268Z,10.30
2018-06-20T05:11:05.844Z,10.57
2018-06-20T05:13:33.405Z,10.63
2018-06-20T05:16:00.980Z,10.87
2018-06-20T05:18:28.559Z,9.93
2018-06-20T05:20:56.163Z,10.57
2018-06-20T05:23:23.766Z,9.03
2018-06-20T05:25:51.337Z,9.30
2018-06-20T05:28:18.904Z,9.30
2018-06-20T05:30:51.739Z,9.00
2018-06-20T05:33:19.891Z,9.60
2018-06-20T05:35:47.545Z,8.50
2018-06-20T05:38:15.663Z,8.30
2018-06-20T05:40:43.290Z,7.77
2018-06-20T05:43:11.139Z,7.33
2018-06-20T05:45:38.729Z,7.87
2018-06-20T05:48:06.316Z,7.87
2018-06-20T05:50:33.946Z,8.03
2018-06-20T05:53:01.571Z,7.87
2018-06-20T05:55:29.169Z,8.00
2018-06-20T05:57:56.738Z,7.37
2018-06-20T06:00:24.292Z,8.10
2018-06-20T06:02:51.910Z,7.20
2018-06-20T06:05:19.477Z,7.97
2018-06-20T06:07:47.049Z,7.87
2018-06-20T06:10:16.205Z,8.33
2018-06-20T06:12:43.969Z,7.83
2018-06-20T06:15:11.557Z,7.27
2018-06-20T06:17:39.144Z,7.63
2018-06-20T06:20:07.233Z,7.00
2018-06-20T06:22:34.837Z,6.70
2018-06-20T06:25:02.705Z,7.37
2018-06-20T06:27:30.304Z,7.93
2018-06-20T06:29:57.948Z,7.17
2018-06-20T06:32:25.751Z,7.03
2018-06-20T06:34:53.408Z,7.17
2018-06-20T06:37:21.008Z,7.17
2018-06-20T06:39:48.570Z,6.40
2018-06-20T06:42:16.398Z,6.80
2018-06-20T06:44:43.981Z,6.40
2018-06-20T06:47:11.589Z,5.73
2018-06-20T06:49:39.253Z,6.07
2018-06-20T06:52:06.888Z,6.77
2018-06-20T06:54:34.500Z,6.70
2018-06-20T06:57:02.063Z,5.17
2018-06-20T06:59:29.702Z,5.80
2018-06-20T07:01:57.262Z,6.73
2018-06-20T07:04:24.842Z,5.70
2018-06-20T07:06:52.408Z,5.20
2018-06-20T07:09:20.086Z,6.30
2018-06-20T07:11:47.632Z,6.17
2018-06-20T07:14:15.210Z,5.63
2018-06-20T07:16:43.029Z,5.73
2018-06-20T07:19:10.617Z,6.47
2018-06-20T07:21:38.184Z,4.90
2018-06-20T07:24:05.908Z,5.40
2018-06-20T07:26:33.513Z,5.10
2018-06-20T07:29:01.079Z,5.07
2018-06-20T07:31:28.658Z,5.10
2018-06-20T07:33:56.308Z,5.30
2018-06-20T07:36:23.899Z,4.70
2018-06-20T07:38:51.475Z,5.07
2018-06-20T07:41:19.049Z,5.10
2018-06-20T07:43:47.224Z,5.93
2018-06-20T07:46:14.821Z,5.50
2018-06-20T07:48:42.376Z,5.23
2018-06-20T07:51:09.960Z,5.03
2018-06-20T07:53:37.538Z,5.07
2018-06-20T07:56:05.385Z,5.50
2018-06-20T07:58:38.167Z,5.50
2018-06-20T08:02:11.877Z,5.53
2018-06-20T08:04:44.799Z,5.43
2018-06-20T08:07:17.751Z,5.80
2018-06-20T08:09:50.718Z,5.37
2018-06-20T08:12:23.713Z,4.63
2018-06-20T08:14:56.475Z,5.10
2018-06-20T08:17:29.424Z,4.90
2018-06-20T08:19:59.071Z,7.30
2018-06-20T08:22:28.088Z,8.00
2018-06-20T08:25:03.890Z,5.80
2018-06-20T08:27:32.736Z,5.07
2018-06-20T08:30:01.864Z,4.80
2018-06-20T08:32:29.567Z,5.10
2018-06-20T08:34:57.126Z,4.20
2018-06-20T08:37:24.693Z,4.67
2018-06-20T08:39:52.287Z,4.30
2018-06-20T08:42:19.904Z,4.00
2018-06-20T08:44:47.457Z,3.93
2018-06-20T08:47:15.071Z,4.27
2018-06-20T08:49:42.621Z,4.10
2018-06-20T08:52:10.179Z,4.27
2018-06-20T08:54:37.789Z,3.87
2018-06-20T08:57:05.341Z,3.80
2018-06-20T08:59:32.989Z,3.57
2018-06-20T09:02:00.575Z,3.57
2018-06-20T09:04:33.351Z,4.17
2018-06-20T09:07:06.129Z,4.67
2018-06-20T09:09:39.045Z,4.37
2018-06-20T09:13:09.405Z,3.63
2018-06-20T09:15:42.212Z,4.43
2018-06-20T09:18:15.102Z,4.00
2018-06-20T09:20:42.709Z,3.83
2018-06-20T09:23:10.309Z,3.90
2018-06-20T09:25:37.914Z,3.83
2018-06-20T09:28:05.539Z,3.63
2018-06-20T09:30:33.092Z,2.93
2018-06-20T09:33:01.696Z,3.70
2018-06-20T09:35:29.453Z,3.60
2018-06-20T09:37:57.121Z,3.60
2018-06-20T09:40:24.692Z,4.03
2018-06-20T09:42:52.259Z,3.20
2018-06-20T09:45:19.872Z,3.50
2018-06-20T09:47:47.459Z,4.10
2018-06-20T09:50:20.236Z,3.67
2018-06-20T09:52:48.137Z,3.30
2018-06-20T09:55:15.700Z,3.07
2018-06-20T09:57:43.253Z,2.30
2018-06-20T10:00:16.221Z,3.20
2018-06-20T10:02:49.053Z,2.67
2018-06-20T10:05:22.082Z,2.90
2018-06-20T10:07:54.927Z,2.93
2018-06-20T10:11:29.756Z,2.50
2018-06-20T10:14:01.511Z,2.90
2018-06-20T10:16:29.788Z,2.60
2018-06-20T10:18:57.385Z,2.63
2018-06-20T10:21:25.027Z,2.83
2018-06-20T10:23:53.015Z,2.50
2018-06-20T10:26:20.603Z,2.77
2018-06-20T10:28:48.265Z,3.17
2018-06-20T10:31:15.878Z,2.70
2018-06-20T10:33:43.493Z,2.80
2018-06-20T10:36:11.091Z,2.47
2018-06-20T10:38:48.772Z,2.37
2018-06-20T10:41:26.235Z,2.80
2018-06-20T10:43:56.708Z,2.83
2018-06-20T10:46:29.766Z,2.50
2018-06-20T10:48:57.372Z,2.27
2018-06-20T10:51:24.996Z,2.33
2018-06-20T10:53:52.588Z,2.57
2018-06-20T10:56:25.395Z,2.80
2018-06-20T10:58:58.253Z,2.23
2018-06-20T11:01:31.300Z,2.30
2018-06-20T11:04:04.073Z,2.60
2018-06-20T11:06:36.892Z,2.30
2018-06-20T11:09:11.934Z,2.50
2018-06-20T11:11:44.982Z,2.70
2018-06-20T11:14:12.603Z,2.57
2018-06-20T11:16:40.218Z,2.53
2018-06-20T11:19:07.832Z,2.20
2018-06-20T11:21:35.412Z,2.70
2018-06-20T11:24:03.223Z,2.63
2018-06-20T11:26:30.857Z,2.27
2018-06-20T11:28:58.507Z,1.90
2018-06-20T11:31:26.109Z,2.27
2018-06-20T11:33:53.691Z,2.30
2018-06-20T11:36:21.292Z,2.00
2018-06-20T11:38:49.219Z,2.13
2018-06-20T11:41:16.850Z,1.90
2018-06-20T11:43:44.483Z,1.73
2018-06-20T11:47:19.149Z,2.50
2018-06-20T11:49:46.786Z,2.53
2018-06-20T11:52:19.766Z,1.93
2018-06-20T11:54:47.440Z,1.90
2018-06-20T11:57:15.110Z,2.30
2018-06-20T11:59:47.929Z,2.30
2018-06-20T12:02:20.830Z,1.80
2018-06-20T12:04:53.736Z,1.80
2018-06-20T12:07:26.725Z,2.20
2018-06-20T12:09:59.547Z,2.43
2018-06-20T12:12:32.384Z,2.10
2018-06-20T12:15:05.314Z,2.00
2018-06-20T12:17:38.318Z,2.20
2018-06-20T12:20:11.174Z,1.87
2018-06-20T12:22:44.203Z,1.90
2018-06-20T12:25:17.207Z,1.70
2018-06-20T12:27:50.190Z,2.10
2018-06-20T12:30:22.901Z,2.40
2018-06-20T12:32:55.784Z,2.20
2018-06-20T12:35:28.588Z,1.90
2018-06-20T12:38:02.001Z,2.10
2018-06-20T12:40:34.835Z,2.00
2018-06-20T12:43:37.172Z,2.03
2018-06-20T12:46:08.673Z,2.40
2018-06-20T12:48:36.299Z,5.10
2018-06-20T12:51:03.917Z,1.93
2018-06-20T12:53:31.521Z,1.90
2018-06-20T12:55:59.242Z,1.93
2018-06-20T12:58:27.005Z,2.10
2018-06-20T13:00:54.588Z,2.50
2018-06-20T13:03:22.239Z,2.63
2018-06-20T13:05:49.887Z,2.63
2018-06-20T13:08:17.462Z,2.20
2018-06-20T13:10:45.061Z,2.40
2018-06-20T13:13:12.653Z,2.30
2018-06-20T13:15:40.282Z,2.20
2018-06-20T13:18:07.912Z,2.10
2018-06-20T13:20:35.552Z,2.17
2018-06-20T13:23:03.149Z,2.60
2018-06-20T13:25:32.824Z,2.40
2018-06-20T13:28:00.424Z,2.50
2018-06-20T13:30:28.047Z,2.57
2018-06-20T13:33:00.947Z,2.60
2018-06-20T13:35:33.940Z,2.93
2018-06-20T13:38:06.960Z,2.23
2018-06-20T13:40:40.010Z,2.33
2018-06-20T13:43:12.837Z,2.80
2018-06-20T13:45:45.739Z,2.30
2018-06-20T13:48:18.499Z,2.40
2018-06-20T13:50:46.085Z,2.67
2018-06-20T13:53:13.683Z,2.40
2018-06-20T13:55:41.278Z,2.70
2018-06-20T13:58:11.958Z,2.27
2018-06-20T14:00:39.635Z,2.70
2018-06-20T14:03:07.285Z,2.50
2018-06-20T14:05:34.950Z,2.80
2018-06-20T14:08:02.577Z,2.30
2018-06-20T14:10:30.201Z,2.27
2018-06-20T14:12:57.846Z,2.40
2018-06-20T14:15:25.492Z,2.70
2018-06-20T14:17:53.097Z,2.83
2018-06-20T14:20:26.000Z,2.80
2018-06-20T14:22:53.692Z,2.90
2018-06-20T14:25:21.324Z,2.70
2018-06-20T14:27:48.926Z,2.80
2018-06-20T14:30:20.787Z,3.17
2018-06-20T14:32:53.573Z,3.00
2018-06-20T14:35:26.468Z,2.80
2018-06-20T14:37:59.463Z,2.53
2018-06-20T14:40:32.269Z,2.80
2018-06-20T14:43:02.853Z,2.27
2018-06-20T14:45:35.855Z,3.23
2018-06-20T14:48:03.733Z,2.43
2018-06-20T14:50:31.375Z,2.70
2018-06-20T14:52:58.945Z,3.10
2018-06-20T14:55:26.585Z,2.50
2018-06-20T14:57:54.160Z,3.10
2018-06-20T15:00:21.739Z,2.97
2018-06-20T15:02:49.375Z,2.53
2018-06-20T15:05:16.995Z,2.77
2018-06-20T15:07:44.601Z,3.17
2018-06-20T15:10:12.290Z,2.83
2018-06-20T15:12:39.926Z,2.90
2018-06-20T15:15:07.613Z,3.03
2018-06-20T15:17:35.253Z,2.73
2018-06-20T15:20:02.949Z,2.90
2018-06-20T15:22:35.960Z,2.57
2018-06-20T15:25:03.560Z,2.60
2018-06-20T15:27:36.384Z,2.57
2018-06-20T15:31:07.217Z,3.60
2018-06-20T15:33:40.227Z,3.00
2018-06-20T15:36:13.143Z,2.90
2018-06-20T15:38:40.769Z,2.40
2018-06-20T15:41:08.409Z,2.63
2018-06-20T15:43:36.052Z,2.93
2018-06-20T15:46:04.951Z,2.70
2018-06-20T15:48:32.649Z,3.00
2018-06-20T15:51:00.326Z,2.73
2018-06-20T15:53:27.926Z,2.97
2018-06-20T15:55:55.490Z,2.83
2018-06-20T15:58:23.061Z,2.70
2018-06-20T16:00:50.796Z,2.97
2018-06-20T16:03:18.581Z,3.50
2018-06-20T16:05:46.170Z,2.93
2018-06-20T16:08:13.913Z,2.67
2018-06-20T16:10:41.560Z,3.03
2018-06-20T16:13:09.132Z,2.90
2018-06-20T16:15:37.593Z,3.47
2018-06-20T16:18:05.273Z,2.87
2018-06-20T16:20:38.296Z,3.20
2018-06-20T16:23:11.413Z,2.90
2018-06-20T16:25:44.243Z,3.03
2018-06-20T16:28:18.588Z,3.20
2018-06-20T16:30:46.756Z,2.93
2018-06-20T16:33:14.410Z,3.70
2018-06-20T16:35:41.971Z,3.30
2018-06-20T16:38:09.563Z,3.30
2018-06-20T16:40:37.190Z,2.83
2018-06-20T16:43:04.830Z,3.10
2018-06-20T16:45:32.404Z,3.20
2018-06-20T16:48:00.005Z,3.00
2018-06-20T16:50:27.622Z,2.90
2018-06-20T16:52:55.176Z,3.13
2018-06-20T16:55:22.764Z,3.80
2018-06-20T16:57:50.389Z,3.30
2018-06-20T17:00:17.977Z,2.93
2018-06-20T17:02:45.780Z,3.20
2018-06-20T17:05:13.926Z,3.37
2018-06-20T17:07:41.756Z,3.10
2018-06-20T17:10:09.460Z,5.17
2018-06-20T17:12:42.452Z,4.27
2018-06-20T17:16:14.292Z,3.40
2018-06-20T17:18:47.342Z,3.40
2018-06-20T17:21:20.230Z,3.93
2018-06-20T17:24:51.043Z,3.30
2018-06-20T17:27:18.661Z,3.30
2018-06-20T17:29:46.235Z,3.80
2018-06-20T17:32:14.296Z,3.80
2018-06-20T17:34:41.957Z,3.97
2018-06-20T17:37:09.598Z,3.90
2018-06-20T17:39:37.162Z,4.00
2018-06-20T17:42:04.754Z,4.30
2018-06-20T17:44:32.471Z,4.33
2018-06-20T17:47:00.065Z,4.83
2018-06-20T17:49:27.664Z,4.10
2018-06-20T17:51:55.291Z,4.53
2018-06-20T17:54:22.872Z,4.87
2018-06-20T17:56:50.565Z,4.50
2018-06-20T17:59:18.131Z,4.40
2018-06-20T18:01:45.733Z,4.50
2018-06-20T18:04:17.602Z,5.20
2018-06-20T18:06:50.472Z,4.53
2018-06-20T18:09:23.303Z,5.03
2018-06-20T18:12:57.934Z,4.97
2018-06-20T18:15:30.756Z,4.60
2018-06-20T18:17:58.333Z,4.87
2018-06-20T18:20:25.948Z,5.17
2018-06-20T18:22:53.574Z,5.00
2018-06-20T18:25:21.269Z,4.83
2018-06-20T18:27:48.877Z,5.00
2018-06-20T18:30:16.529Z,5.53
2018-06-20T18:32:44.206Z,5.00
2018-06-20T18:35:11.812Z,5.00
2018-06-20T18:37:39.479Z,5.17
2018-06-20T18:40:08.632Z,5.00
2018-06-20T18:42:36.634Z,5.43
2018-06-20T18:45:04.541Z,5.37
2018-06-20T18:47:37.999Z,5.23
2018-06-20T18:50:05.654Z,5.90
2018-06-20T18:52:33.332Z,5.70
2018-06-20T18:55:00.958Z,5.60
2018-06-20T18:57:33.871Z,5.90
2018-06-20T19:01:07.734Z,5.40
2018-06-20T19:03:40.630Z,6.50
2018-06-20T19:06:13.538Z,6.37
2018-06-20T19:08:46.590Z,5.90
2018-06-20T19:11:14.248Z,6.53
2018-06-20T19:13:41.928Z,6.87
2018-06-20T19:16:09.670Z,7.07
2018-06-20T19:18:38.352Z,7.07
2018-06-20T19:21:08.621Z,5.93
2018-06-20T19:23:36.233Z,6.10
2018-06-20T19:26:04.450Z,6.67
2018-06-20T19:28:32.079Z,6.80
2018-06-20T19:30:59.770Z,7.00
2018-06-20T19:33:27.400Z,6.77
2018-06-20T19:35:55.025Z,6.87
2018-06-20T19:38:22.669Z,7.70
2018-06-20T19:40:50.417Z,6.93
2018-06-20T19:43:18.946Z,6.73
2018-06-20T19:45:46.666Z,6.70
2018-06-20T19:48:14.256Z,7.27
2018-06-20T19:50:41.962Z,6.43
2018-06-20T19:53:09.749Z,8.20
2018-06-20T19:55:37.350Z,7.63
2018-06-20T19:58:05.021Z,8.50
2018-06-20T20:00:32.625Z,8.57
2018-06-20T20:03:00.209Z,8.60
2018-06-20T20:05:27.822Z,8.30
2018-06-20T20:07:55.469Z,8.13
2018-06-20T20:10:23.120Z,8.20
2018-06-20T20:12:50.717Z,8.13
2018-06-20T20:15:18.297Z,7.90
2018-06-20T20:17:45.918Z,8.23
2018-06-20T20:20:13.548Z,6.97
2018-06-20T20:22:41.214Z,7.00
2018-06-20T20:25:08.805Z,7.27
2018-06-20T20:27:36.390Z,7.30
2018-06-20T20:30:04.060Z,7.37
2018-06-20T20:32:31.614Z,7.70
2018-06-20T20:34:59.420Z,7.10
2018-06-20T20:37:27.009Z,7.17
2018-06-20T20:39:54.606Z,6.73
2018-06-20T20:42:22.231Z,6.80
2018-06-20T20:44:49.844Z,7.80
2018-06-20T20:47:17.478Z,7.30
2018-06-20T20:49:45.067Z,7.40
2018-06-20T20:52:13.028Z,7.80
2018-06-20T20:54:40.647Z,7.70
2018-06-20T20:57:08.273Z,7.10
2018-06-20T20:59:36.141Z,7.33
2018-06-20T21:02:03.778Z,6.40
2018-06-20T21:04:31.393Z,7.70
2018-06-20T21:06:59.029Z,7.30
2018-06-20T21:09:26.782Z,7.17
2018-06-20T21:11:54.416Z,7.40
2018-06-20T21:14:22.020Z,7.47
2018-06-20T21:16:49.715Z,7.17
2018-06-20T21:19:17.506Z,7.90
2018-06-20T21:21:47.267Z,7.70
2018-06-20T21:24:15.079Z,8.33
2018-06-20T21:26:43.177Z,8.27
2018-06-20T21:29:11.008Z,8.50
2018-06-20T21:31:38.632Z,7.80
2018-06-20T21:34:06.268Z,7.80
2018-06-20T21:36:34.096Z,7.80
2018-06-20T21:39:01.901Z,7.40
2018-06-20T21:41:29.545Z,7.50
2018-06-20T21:43:57.228Z,7.87
2018-06-20T21:46:24.824Z,8.13
2018-06-20T21:48:52.430Z,7.73
2018-06-20T21:51:20.051Z,7.37
2018-06-20T21:53:47.662Z,7.80
2018-06-20T21:56:15.474Z,7.50
2018-06-20T21:58:43.081Z,7.90
2018-06-20T22:01:10.709Z,8.10
2018-06-20T22:03:38.377Z,7.97
2018-06-20T22:06:05.963Z,7.50
2018-06-20T22:08:33.591Z,7.67
2018-06-20T22:11:01.196Z,7.60
2018-06-20T22:13:28.810Z,8.40
2018-06-20T22:15:56.387Z,9.77
2018-06-20T22:18:24.015Z,9.17
2018-06-20T22:20:51.625Z,8.40
2018-06-20T22:23:19.216Z,8.03
2018-06-20T22:25:46.874Z,8.33
2018-06-20T22:28:14.474Z,8.20
2018-06-20T22:30:42.023Z,8.00
2018-06-20T22:33:09.623Z,8.00
2018-06-20T22:35:37.179Z,8.17
2018-06-20T22:38:04.877Z,8.73
2018-06-20T22:40:32.597Z,9.00
2018-06-20T22:43:00.254Z,8.03
2018-06-20T22:45:27.853Z,8.90
2018-06-20T22:47:55.504Z,8.87
2018-06-20T22:50:23.076Z,8.77
2018-06-20T22:52:50.687Z,8.93
2018-06-20T22:55:18.303Z,8.60
2018-06-20T22:57:45.924Z,8.30
2018-06-20T23:00:13.520Z,7.47
2018-06-20T23:02:41.109Z,7.87
2018-06-20T23:05:08.669Z,8.50
2018-06-20T23:07:36.286Z,7.60
2018-06-20T23:10:03.947Z,8.13
2018-06-20T23:12:31.555Z,9.00
2018-06-20T23:14:59.119Z,9.37
2018-06-20T23:17:26.725Z,8.83
2018-06-20T23:19:54.294Z,7.70
2018-06-20T23:22:21.882Z,8.90
2018-06-20T23:24:49.503Z,9.47
2018-06-20T23:27:17.087Z,7.90
2018-06-20T23:29:44.704Z,8.50
2018-06-20T23:32:12.292Z,9.10
2018-06-20T23:34:39.860Z,8.00
2018-06-20T23:37:07.499Z,9.47
2018-06-20T23:39:35.082Z,8.20
2018-06-20T23:42:02.647Z,9.43
2018-06-20T23:44:30.217Z,9.60
2018-06-20T23:46:57.793Z,8.73
2018-06-20T23:49:25.386Z,9.40
2018-06-20T23:51:52.963Z,9.70
2018-06-20T23:54:20.584Z,9.17
2018-06-20T23:56:48.164Z,8.80
2018-06-20T23:59:15.749Z,8.90
